Terminal Aerodrome Forecast
Issued by NWS Sioux Falls, SD

Home | Current Version | Previous Version | Graphics & Text | Print | Product List | Glossary Off
Versions: 1 2 3 4 5 6 7 8 9 10 11 12 13 14 15 16 17 18 19 20 21 22 23 24 25 26

000
FTUS43 KFSD 281739
TAFSUX
TAF
KSUX 281739Z 2818/2918 16013G18KT P6SM SCT040
     FM282100 17017G24KT P6SM SKC
     FM290400 17021G28KT P6SM SCT110 BKN150 WS020/20052KT
     FM290900 23013G24KT P6SM FEW050
     FM291500 31024G39KT P6SM BKN035=

USA.gov is the U.S. government's official web portal to all federal, state and local government web resources and services.